Terminal Aerodrome Forecast
Issued by NWS

Home | Current Version | Previous Version | Text Only | Print | Product List | Glossary On
Versions: 1 2 3 4 5 6 7 8 9 10 11 12 13 14 15 16 17 18 19 20 21
000
FTUS43 KBIS 311700
TAFMOT
TAF
KMOT 311737Z 3118/0118 05012KT 3/4SM -SN OVC015
     FM312000 04014KT 2SM -SN OVC025
     FM010000 01014KT P6SM -SN OVC025
     FM010200 36011KT P6SM OVC035=

USA.gov is the U.S. government's official web portal to all federal, state and local government web resources and services.